Page Field Fort Myers US
ICAO: KFMY
IATA: FMY
Category: Medium
Scheduled Services: No

Elevation: 17 ft
TransAlt. 18000 ft.

Airport Communications:
FORT MYERS APP/DEP:126.8
ATIS:123.725
CLNC DEL:121.7
CTAF:119
GND:121.7
MIAMI RDO:122.2
TWR:119
UNICOM:130.55

KFMY Zoom In..

If you have problems with the map follow the link
https://www.worldairports.se/pages/airport.php?
ICAO=KFMY

Runways:

(A) RW 05 length 6406 ft width 150 ft
ILS 110.70 / hdg 51

(B) RW 13 length 4912 ft width 150 ft
---- / hdg 133

(C) RW 23 length 6406 ft width 150 ft
---- / hdg 231

(D) RW 31 length 4912 ft width 150 ft
---- / hdg 313

Location; KFMY
Day. 18 / Time. 06.53 Zulu
* Altimeter: 30.10
* Temperature: 24° c. 75.2°f.
* Wind from: 000° Speed 00 kn.
Dewpoint: 23° c.
Visibility: 10 Statute Miles.
Clouds: Clear (automated report).

KFMY 180653Z AUTO 00000KT 10SM CLR 24/23 A3010 RMK AO2 SLP195 T02390233


Wind - Calm.

 
 
jpsmedia.com for Web Design worldairports.se 2018   terms of use